Time;durP1;ratioP1;P1;durP2;ratioP2;P2;SDS_P1;SDS_P2;PMS_P1;PMS_P2;Temp;Humidity;BMP_temperature;BMP_pressure;BME280_temperature;BME280_humidity;BME280_pressure;Samples;Min_cycle;Max_cycle;Signal;HPM_P1;HPM_P2
2022/09/27 05:22:00;;;;;;;18.48;11.27;;;;;;;;;;5491024;23;20065;-65
2022/09/27 05:24:31;;;;;;;15.73;11.27;;;;;;;;;;4822622;29;20046;-64
2022/09/27 05:26:58;;;;;;;26.60;12.55;;;;;;;;;;4819790;29;20030;-64
2022/09/27 05:29:24;;;;;;;20.17;11.80;;;;;;;;;;4814002;29;20495;-64
2022/09/27 05:31:50;;;;;;;22.58;11.88;;;;;;;;;;4816435;29;20428;-66
2022/09/27 05:34:19;;;;;;;20.10;12.25;;;;;;;;;;4813612;29;20039;-66
2022/09/27 05:36:47;;;;;;;18.52;11.90;;;;;;;;;;4811775;29;20081;-62
2022/09/27 05:39:15;;;;;;;19.48;12.75;;;;;;;;;;4815391;29;20030;-64
2022/09/27 05:41:41;;;;;;;16.35;11.20;;;;;;;;;;4814356;29;20064;-64
2022/09/27 05:44:07;;;;;;;15.63;11.50;;;;;;;;;;4811190;29;20034;-65
2022/09/27 05:46:33;;;;;;;14.38;10.80;;;;;;;;;;4809009;29;20035;-65
2022/09/27 05:48:59;;;;;;;15.25;10.77;;;;;;;;;;4814157;29;20030;-66
2022/09/27 05:51:25;;;;;;;13.27;8.93;;;;;;;;;;4814429;29;20038;-69
2022/09/27 05:53:51;;;;;;;13.50;9.13;;;;;;;;;;4815711;29;20126;-64
2022/09/27 05:56:17;;;;;;;14.00;8.80;;;;;;;;;;4814240;29;20034;-64
2022/09/27 05:58:44;;;;;;;11.63;8.32;;;;;;;;;;4814651;29;20023;-64
2022/09/27 06:01:10;;;;;;;12.48;8.30;;;;;;;;;;4805941;29;20030;-65
2022/09/27 06:03:36;;;;;;;10.25;7.55;;;;;;;;;;4806172;29;20119;-65
2022/09/27 06:06:04;;;;;;;12.63;8.20;;;;;;;;;;4805472;29;20030;-67
2022/09/27 06:08:33;;;;;;;9.65;7.07;;;;;;;;;;4805999;29;20043;-64
2022/09/27 06:11:07;;;;;;;9.68;7.28;;;;;;;;;;4806111;29;20034;-64
2022/09/27 06:13:33;;;;;;;11.30;7.18;;;;;;;;;;4805850;29;20050;-64
2022/09/27 06:15:59;;;;;;;9.18;6.20;;;;;;;;;;4806147;29;20163;-64
2022/09/27 06:18:25;;;;;;;8.88;5.60;;;;;;;;;;4805703;29;20043;-64
2022/09/27 06:20:51;;;;;;;7.00;4.53;;;;;;;;;;4809791;29;20038;-64
2022/09/27 06:23:19;;;;;;;7.53;5.28;;;;;;;;;;4811553;29;20130;-65
2022/09/27 06:25:46;;;;;;;7.35;4.57;;;;;;;;;;4820546;29;20066;-64
2022/09/27 06:28:13;;;;;;;8.50;6.22;;;;;;;;;;4806212;29;20030;-68
2022/09/27 06:30:39;;;;;;;9.00;5.40;;;;;;;;;;4805930;29;20027;-66
2022/09/27 06:33:06;;;;;;;7.95;5.57;;;;;;;;;;4812223;29;20046;-66
2022/09/27 06:35:34;;;;;;;5.88;4.78;;;;;;;;;;4811896;29;20394;-67
2022/09/27 06:38:02;;;;;;;8.30;5.00;;;;;;;;;;4814079;29;20387;-65
2022/09/27 06:40:28;;;;;;;8.00;4.85;;;;;;;;;;4813208;29;20106;-69
2022/09/27 06:42:57;;;;;;;6.57;4.75;;;;;;;;;;4808061;29;20084;-65
2022/09/27 06:45:23;;;;;;;7.20;4.80;;;;;;;;;;4809433;29;20022;-68
2022/09/27 06:47:49;;;;;;;7.97;5.38;;;;;;;;;;4823173;29;20054;-65
2022/09/27 06:50:15;;;;;;;8.73;5.75;;;;;;;;;;4818277;29;20079;-65
2022/09/27 06:52:48;;;;;;;7.97;5.43;;;;;;;;;;4805015;29;20074;-65
2022/09/27 06:55:15;;;;;;;8.63;6.15;;;;;;;;;;4805208;29;20495;-65
2022/09/27 07:00:26;;;;;;;15.88;6.65;;;;;;;;;;4804981;29;20038;-66
2022/09/27 07:02:53;;;;;;;12.98;7.25;;;;;;;;;;4805169;29;20037;-65
2022/09/27 07:05:20;;;;;;;10.15;6.95;;;;;;;;;;4788311;29;20035;-65
2022/09/27 07:07:50;;;;;;;12.02;8.23;;;;;;;;;;4788305;29;20042;-65
2022/09/27 07:10:17;;;;;;;10.68;8.45;;;;;;;;;;4804745;29;20063;-65
2022/09/27 07:12:47;;;;;;;13.43;9.43;;;;;;;;;;4804592;29;20041;-65
2022/09/27 07:15:13;;;;;;;15.35;10.65;;;;;;;;;;4788335;29;20035;-65
2022/09/27 07:17:39;;;;;;;18.13;10.70;;;;;;;;;;4804007;29;20034;-64
2022/09/27 07:20:05;;;;;;;15.02;10.30;;;;;;;;;;4788350;29;20047;-64
2022/09/27 07:22:31;;;;;;;16.13;10.15;;;;;;;;;;4803739;29;20051;-65
2022/09/27 07:24:57;;;;;;;14.30;9.52;;;;;;;;;;4804613;29;20078;-65
2022/09/27 07:27:25;;;;;;;13.30;8.98;;;;;;;;;;4804585;29;20039;-64
2022/09/27 07:29:51;;;;;;;16.20;9.93;;;;;;;;;;4804607;29;20050;-64
2022/09/27 07:32:17;;;;;;;14.05;10.18;;;;;;;;;;4804295;29;20095;-64
2022/09/27 07:34:43;;;;;;;17.92;10.70;;;;;;;;;;4804649;29;20070;-65
2022/09/27 07:37:09;;;;;;;15.68;11.23;;;;;;;;;;4804188;29;20427;-65
2022/09/27 07:39:35;;;;;;;17.63;13.40;;;;;;;;;;4804633;29;20038;-65
2022/09/27 07:42:01;;;;;;;20.40;13.13;;;;;;;;;;4804545;29;20114;-66
2022/09/27 07:44:27;;;;;;;19.25;13.00;;;;;;;;;;4804339;29;20077;-66
2022/09/27 07:46:53;;;;;;;21.48;13.73;;;;;;;;;;4804152;29;20058;-65
2022/09/27 07:49:20;;;;;;;20.50;11.63;;;;;;;;;;4787412;29;20039;-65
2022/09/27 07:51:46;;;;;;;15.52;10.93;;;;;;;;;;4803480;29;20035;-65
2022/09/27 07:54:12;;;;;;;16.25;10.70;;;;;;;;;;4803698;29;20077;-65
2022/09/27 07:56:38;;;;;;;12.73;9.95;;;;;;;;;;4804267;29;20031;-65
2022/09/27 07:59:04;;;;;;;13.65;10.35;;;;;;;;;;4804029;29;20038;-65
2022/09/27 08:01:30;;;;;;;14.75;10.90;;;;;;;;;;4804197;29;20031;-65
2022/09/27 08:03:57;;;;;;;10.68;9.25;;;;;;;;;;4804064;29;20035;-62
2022/09/27 08:06:24;;;;;;;12.27;9.32;;;;;;;;;;4803503;29;20404;-65
2022/09/27 08:08:50;;;;;;;11.85;9.30;;;;;;;;;;4802421;29;20038;-65
2022/09/27 08:11:17;;;;;;;15.20;8.20;;;;;;;;;;4804044;29;20038;-65
2022/09/27 08:13:44;;;;;;;11.85;8.57;;;;;;;;;;4803827;29;20039;-65
2022/09/27 08:16:11;;;;;;;13.15;9.18;;;;;;;;;;4803867;29;20034;-65
2022/09/27 08:18:37;;;;;;;13.70;9.52;;;;;;;;;;4803866;29;20031;-65
2022/09/27 08:21:03;;;;;;;15.35;9.68;;;;;;;;;;4803903;29;20510;-66
2022/09/27 08:23:29;;;;;;;15.38;10.02;;;;;;;;;;4803943;29;20059;-67
2022/09/27 08:25:57;;;;;;;17.90;9.52;;;;;;;;;;4803740;29;20484;-67
2022/09/27 08:28:23;;;;;;;12.05;8.77;;;;;;;;;;4804053;29;20425;-65
2022/09/27 08:30:50;;;;;;;13.27;9.10;;;;;;;;;;4807357;29;20034;-66
2022/09/27 08:33:16;;;;;;;12.15;8.15;;;;;;;;;;4807172;29;20039;-66
2022/09/27 08:35:42;;;;;;;13.38;7.75;;;;;;;;;;4807412;29;20436;-66
2022/09/27 08:38:09;;;;;;;12.38;8.07;;;;;;;;;;4791177;29;20030;-66
2022/09/27 08:41:01;;;;;;;11.38;7.93;;;;;;;;;;4807554;29;20053;-66
2022/09/27 08:43:46;;;;;;;11.07;8.68;;;;;;;;;;4789494;29;20046;-65
2022/09/27 08:46:30;;;;;;;10.85;7.90;;;;;;;;;;4807249;29;20035;-65
2022/09/27 08:49:00;;;;;;;15.18;10.10;;;;;;;;;;4807483;29;20027;-66
2022/09/27 08:51:28;;;;;;;12.23;8.45;;;;;;;;;;4807221;29;20043;-66
2022/09/27 08:54:01;;;;;;;13.38;8.45;;;;;;;;;;4807364;29;20043;-66
2022/09/27 08:56:27;;;;;;;9.70;7.53;;;;;;;;;;4807218;29;20043;-65
2022/09/27 08:58:58;;;;;;;14.00;7.65;;;;;;;;;;4806959;29;20042;-64
2022/09/27 09:01:25;;;;;;;11.90;8.25;;;;;;;;;;4811963;29;20034;-64
2022/09/27 09:03:54;;;;;;;16.67;8.88;;;;;;;;;;4813810;29;20045;-63
2022/09/27 09:06:25;;;;;;;13.75;8.20;;;;;;;;;;4817771;29;20098;-63
2022/09/27 09:09:09;;;;;;;11.15;7.70;;;;;;;;;;4813821;29;20046;-63
2022/09/27 09:14:30;;;;;;;7.78;4.90;;;;;;;;;;4822651;29;20061;-64
2022/09/27 09:17:06;;;;;;;7.93;4.80;;;;;;;;;;4806947;29;20027;-64
2022/09/27 09:19:35;;;;;;;9.38;4.93;;;;;;;;;;4806853;29;20038;-64
2022/09/27 09:22:20;;;;;;;11.50;5.55;;;;;;;;;;4790324;29;20057;-64
2022/09/27 09:24:54;;;;;;;10.43;6.40;;;;;;;;;;4806724;29;20133;-68
2022/09/27 09:27:20;;;;;;;11.70;5.80;;;;;;;;;;4806511;29;20041;-64
2022/09/27 09:29:46;;;;;;;13.20;7.03;;;;;;;;;;4790449;29;20113;-64
2022/09/27 09:32:24;;;;;;;13.38;7.55;;;;;;;;;;4806675;29;20111;-64
2022/09/27 09:34:57;;;;;;;17.27;8.52;;;;;;;;;;4806637;29;20233;-64
2022/09/27 09:37:30;;;;;;;11.48;6.95;;;;;;;;;;4806645;29;20039;-66
2022/09/27 09:40:00;;;;;;;11.30;6.93;;;;;;;;;;4806237;29;20026;-64
2022/09/27 09:42:30;;;;;;;11.00;7.10;;;;;;;;;;4806432;29;20384;-64
2022/09/27 09:44:59;;;;;;;10.68;5.93;;;;;;;;;;4806795;29;20045;-64
2022/09/27 09:47:25;;;;;;;7.05;4.90;;;;;;;;;;4806315;29;20459;-65
2022/09/27 09:49:52;;;;;;;7.80;5.00;;;;;;;;;;4806344;29;20100;-65
2022/09/27 09:52:20;;;;;;;7.70;5.07;;;;;;;;;;4806165;29;20539;-65
2022/09/27 09:54:51;;;;;;;8.00;4.45;;;;;;;;;;4806256;29;20038;-68
2022/09/27 09:57:37;;;;;;;7.20;4.67;;;;;;;;;;4806520;29;20062;-65
2022/09/27 10:00:12;;;;;;;8.85;4.20;;;;;;;;;;4805886;29;20821;-65
2022/09/27 10:02:39;;;;;;;6.63;4.25;;;;;;;;;;4806042;29;20034;-65
2022/09/27 10:05:06;;;;;;;8.57;4.20;;;;;;;;;;4806271;29;20079;-68
2022/09/27 10:07:33;;;;;;;10.07;3.70;;;;;;;;;;4806071;29;20087;-65
2022/09/27 10:10:00;;;;;;;6.10;3.97;;;;;;;;;;4806234;29;20373;-65
2022/09/27 10:12:27;;;;;;;7.20;3.75;;;;;;;;;;4806027;29;20068;-65
2022/09/27 10:14:53;;;;;;;4.10;3.70;;;;;;;;;;4806236;29;20038;-65
2022/09/27 10:17:22;;;;;;;6.57;4.03;;;;;;;;;;4805923;29;20079;-65
2022/09/27 10:19:53;;;;;;;6.00;3.83;;;;;;;;;;4805890;29;20022;-65
2022/09/27 10:22:23;;;;;;;5.28;3.40;;;;;;;;;;4805814;29;20399;-65
2022/09/27 10:24:53;;;;;;;6.50;3.55;;;;;;;;;;4805823;29;20043;-65
2022/09/27 10:27:20;;;;;;;5.43;3.42;;;;;;;;;;4805721;29;20026;-65
2022/09/27 10:29:46;;;;;;;5.85;3.20;;;;;;;;;;4805951;29;20043;-66
2022/09/27 10:32:21;;;;;;;5.90;3.45;;;;;;;;;;4805535;29;20038;-66
2022/09/27 10:34:47;;;;;;;5.72;3.00;;;;;;;;;;4805437;29;20427;-67
2022/09/27 10:37:23;;;;;;;4.82;3.20;;;;;;;;;;4805086;29;20433;-67
2022/09/27 10:39:50;;;;;;;5.47;3.15;;;;;;;;;;4805487;29;20045;-66
2022/09/27 10:42:31;;;;;;;6.93;3.25;;;;;;;;;;4805381;29;20031;-67
2022/09/27 10:44:57;;;;;;;5.50;3.40;;;;;;;;;;4805363;29;20092;-66
2022/09/27 10:47:25;;;;;;;4.60;3.10;;;;;;;;;;4805262;29;20030;-66
2022/09/27 10:49:52;;;;;;;8.85;3.20;;;;;;;;;;4805296;29;20023;-67
2022/09/27 10:52:18;;;;;;;6.78;2.95;;;;;;;;;;4804312;29;20129;-66
2022/09/27 10:54:57;;;;;;;7.53;3.17;;;;;;;;;;4788994;29;20079;-67
2022/09/27 10:57:25;;;;;;;4.63;3.38;;;;;;;;;;4805109;29;20514;-67
2022/09/27 11:00:04;;;;;;;4.90;3.40;;;;;;;;;;4788798;29;20038;-66
2022/09/27 11:02:32;;;;;;;6.40;3.50;;;;;;;;;;4805047;29;20539;-66
2022/09/27 11:05:14;;;;;;;6.07;3.38;;;;;;;;;;4804770;29;20068;-66
2022/09/27 11:07:54;;;;;;;5.68;3.30;;;;;;;;;;4804713;29;20030;-67
2022/09/27 11:10:23;;;;;;;5.28;3.33;;;;;;;;;;4805064;29;20039;-67
2022/09/27 11:13:27;;;;;;;4.32;3.40;;;;;;;;;;4804729;29;20384;-68
2022/09/27 11:16:11;;;;;;;5.03;3.30;;;;;;;;;;4748808;30;20498;-66
2022/09/27 11:18:49;;;;;;;5.88;3.10;;;;;;;;;;4748513;30;20106;-66
2022/09/27 11:21:34;;;;;;;5.25;3.00;;;;;;;;;;4748542;30;20032;-68
2022/09/27 11:24:14;;;;;;;6.88;3.30;;;;;;;;;;4748384;30;20056;-68
2022/09/27 11:26:55;;;;;;;5.70;3.45;;;;;;;;;;4748848;30;20039;-66
2022/09/27 11:29:28;;;;;;;6.72;3.53;;;;;;;;;;4748543;30;20047;-67
2022/09/27 11:32:13;;;;;;;7.72;3.00;;;;;;;;;;4748602;30;20032;-66
2022/09/27 11:34:57;;;;;;;7.32;3.85;;;;;;;;;;4752759;30;20067;-66
2022/09/27 11:37:32;;;;;;;6.85;3.53;;;;;;;;;;4763341;30;20075;-66
2022/09/27 11:39:58;;;;;;;5.57;3.58;;;;;;;;;;4762657;30;20029;-67
2022/09/27 11:42:36;;;;;;;6.85;3.50;;;;;;;;;;4760569;30;20063;-68
2022/09/27 11:45:26;;;;;;;8.60;4.53;;;;;;;;;;4764867;30;20028;-66
2022/09/27 11:48:03;;;;;;;8.25;4.47;;;;;;;;;;4763738;30;20032;-65
2022/09/27 11:50:36;;;;;;;6.82;3.88;;;;;;;;;;4803013;29;20054;-66
2022/09/27 11:53:20;;;;;;;6.75;5.22;;;;;;;;;;4812822;29;20417;-66
2022/09/27 11:55:52;;;;;;;10.98;5.60;;;;;;;;;;4814714;29;20114;-65
2022/09/27 11:58:18;;;;;;;8.63;5.60;;;;;;;;;;4816015;29;20030;-66
2022/09/27 12:00:55;;;;;;;9.10;5.28;;;;;;;;;;4811568;29;20055;-66
2022/09/27 12:03:36;;;;;;;8.95;5.72;;;;;;;;;;4810879;29;20055;-66
2022/09/27 12:06:07;;;;;;;7.78;4.28;;;;;;;;;;4813360;29;20070;-67
2022/09/27 12:08:52;;;;;;;8.18;5.43;;;;;;;;;;4821607;29;20030;-66
2022/09/27 12:11:33;;;;;;;9.23;4.70;;;;;;;;;;4813258;29;20083;-64
2022/09/27 12:14:10;;;;;;;5.97;4.78;;;;;;;;;;4803376;29;20054;-64
2022/09/27 12:16:38;;;;;;;6.72;3.70;;;;;;;;;;4803568;29;20023;-65
2022/09/27 12:19:10;;;;;;;6.75;4.10;;;;;;;;;;4804025;29;20446;-65
2022/09/27 12:21:36;;;;;;;10.35;4.72;;;;;;;;;;4803815;29;20484;-65
2022/09/27 12:24:02;;;;;;;5.20;3.95;;;;;;;;;;4809807;29;20578;-65
2022/09/27 12:26:42;;;;;;;7.75;4.38;;;;;;;;;;4821836;29;20334;-65
2022/09/27 12:29:17;;;;;;;10.50;6.97;;;;;;;;;;4821026;29;20491;-65
2022/09/27 12:31:46;;;;;;;12.65;9.00;;;;;;;;;;4820341;29;20030;-65
2022/09/27 12:34:25;;;;;;;10.57;6.95;;;;;;;;;;4818209;29;20039;-65
2022/09/27 12:36:55;;;;;;;16.02;6.93;;;;;;;;;;4821709;29;20037;-65
2022/09/27 12:39:27;;;;;;;13.90;7.80;;;;;;;;;;4811352;29;20039;-69
2022/09/27 12:42:00;;;;;;;16.67;7.78;;;;;;;;;;4815316;29;20034;-66
2022/09/27 12:44:27;;;;;;;13.05;8.10;;;;;;;;;;4812989;29;20102;-65
2022/09/27 12:47:03;;;;;;;16.58;7.72;;;;;;;;;;4811572;29;20094;-67
2022/09/27 12:49:39;;;;;;;17.15;7.78;;;;;;;;;;4811311;29;20554;-65
2022/09/27 12:52:10;;;;;;;20.23;8.85;;;;;;;;;;4812734;29;20034;-66
2022/09/27 12:54:55;;;;;;;20.10;13.23;;;;;;;;;;4805934;29;20516;-65
2022/09/27 12:57:36;;;;;;;18.30;10.18;;;;;;;;;;4803711;29;20061;-65
2022/09/27 13:00:05;;;;;;;21.38;11.38;;;;;;;;;;4803368;29;20480;-65
2022/09/27 13:02:50;;;;;;;28.33;18.75;;;;;;;;;;4802887;29;20023;-65
2022/09/27 13:05:35;;;;;;;25.90;14.52;;;;;;;;;;4803054;29;20464;-65
2022/09/27 13:08:01;;;;;;;18.95;12.48;;;;;;;;;;4803095;29;20345;-65
2022/09/27 13:10:46;;;;;;;9.35;6.15;;;;;;;;;;4803490;29;20045;-67
2022/09/27 13:13:13;;;;;;;8.02;2.80;;;;;;;;;;4803492;29;20107;-64
2022/09/27 13:15:42;;;;;;;7.40;3.05;;;;;;;;;;4804350;29;20042;-63
2022/09/27 13:18:27;;;;;;;7.55;3.97;;;;;;;;;;4806849;29;20031;-64
2022/09/27 13:20:54;;;;;;;9.25;3.08;;;;;;;;;;4806456;29;20609;-65
2022/09/27 13:23:21;;;;;;;11.73;5.68;;;;;;;;;;4804610;29;20047;-64
2022/09/27 13:25:47;;;;;;;4.50;2.63;;;;;;;;;;4805816;29;20037;-64
2022/09/27 13:28:36;;;;;;;5.85;2.60;;;;;;;;;;4806326;29;20026;-63
2022/09/27 13:31:07;;;;;;;4.45;1.80;;;;;;;;;;4806379;29;20044;-63
2022/09/27 13:33:46;;;;;;;3.30;1.88;;;;;;;;;;4806289;29;20043;-63
2022/09/27 13:36:27;;;;;;;5.78;1.95;;;;;;;;;;4806029;29;20035;-64
2022/09/27 13:39:05;;;;;;;5.22;2.03;;;;;;;;;;4806170;29;20077;-66
2022/09/27 13:41:31;;;;;;;6.47;2.60;;;;;;;;;;4806260;29;20023;-63
2022/09/27 13:44:32;;;;;;;8.07;3.05;;;;;;;;;;4806388;29;20080;-63
2022/09/27 13:47:00;;;;;;;6.22;3.08;;;;;;;;;;4749947;30;20040;-67
2022/09/27 13:49:46;;;;;;;5.20;2.35;;;;;;;;;;4749878;30;20078;-68
2022/09/27 13:52:21;;;;;;;4.82;2.45;;;;;;;;;;4734968;30;20505;-69
2022/09/27 13:54:52;;;;;;;4.18;2.17;;;;;;;;;;4756172;30;20215;-69
2022/09/27 13:57:37;;;;;;;5.57;2.50;;;;;;;;;;4767738;30;20096;-67
2022/09/27 14:00:06;;;;;;;5.13;2.65;;;;;;;;;;4767515;30;20039;-67
2022/09/27 14:02:37;;;;;;;6.30;2.90;;;;;;;;;;4758992;30;20586;-67
2022/09/27 14:05:04;;;;;;;6.17;2.43;;;;;;;;;;4749869;30;20401;-67
2022/09/27 14:07:36;;;;;;;4.97;3.10;;;;;;;;;;4749649;30;20702;-68
2022/09/27 14:10:04;;;;;;;9.45;4.30;;;;;;;;;;4749547;30;20049;-67
2022/09/27 14:12:34;;;;;;;4.85;2.95;;;;;;;;;;4761563;30;20549;-68
2022/09/27 14:15:02;;;;;;;5.70;2.70;;;;;;;;;;4767841;30;20036;-67
2022/09/27 14:17:30;;;;;;;4.57;2.63;;;;;;;;;;4767371;30;20044;-69
2022/09/27 14:19:56;;;;;;;5.95;2.92;;;;;;;;;;4771028;29;20130;-66
2022/09/27 14:22:23;;;;;;;6.55;3.15;;;;;;;;;;4823055;29;20730;-67
2022/09/27 14:24:50;;;;;;;6.22;2.78;;;;;;;;;;4818913;29;20055;-67
2022/09/27 14:27:22;;;;;;;4.50;2.33;;;;;;;;;;4816787;29;20030;-67
2022/09/27 14:29:48;;;;;;;4.05;2.42;;;;;;;;;;4800548;29;20050;-67
2022/09/27 14:32:19;;;;;;;4.10;2.25;;;;;;;;;;4821728;29;20476;-66
2022/09/27 14:34:45;;;;;;;4.47;2.60;;;;;;;;;;4825763;29;20471;-66
2022/09/27 14:37:25;;;;;;;4.80;2.85;;;;;;;;;;4819375;29;20033;-66
2022/09/27 14:39:59;;;;;;;6.38;3.20;;;;;;;;;;4805046;29;20179;-66
2022/09/27 14:42:27;;;;;;;5.15;3.28;;;;;;;;;;4825437;29;20110;-67
2022/09/27 14:44:55;;;;;;;6.35;3.08;;;;;;;;;;4814468;29;20034;-66
2022/09/27 14:47:26;;;;;;;4.60;2.95;;;;;;;;;;4821368;29;20061;-65
2022/09/27 14:49:56;;;;;;;5.93;3.30;;;;;;;;;;4819685;29;20054;-66
2022/09/27 14:52:26;;;;;;;4.70;2.90;;;;;;;;;;4827053;29;20463;-66
2022/09/27 14:55:00;;;;;;;5.53;3.35;;;;;;;;;;4817918;29;20051;-64
2022/09/27 14:57:27;;;;;;;5.72;3.55;;;;;;;;;;4817045;29;20039;-67
2022/09/27 14:59:53;;;;;;;4.65;3.17;;;;;;;;;;4817450;29;20030;-65
2022/09/27 15:02:21;;;;;;;5.53;3.25;;;;;;;;;;4819115;29;20030;-66
2022/09/27 15:04:49;;;;;;;7.38;4.00;;;;;;;;;;4819246;29;20547;-65
2022/09/27 15:07:15;;;;;;;9.10;4.85;;;;;;;;;;4819640;29;20260;-65
2022/09/27 15:09:42;;;;;;;9.23;4.65;;;;;;;;;;4803680;29;20030;-66
2022/09/27 15:12:11;;;;;;;9.52;5.03;;;;;;;;;;4803194;29;20500;-65
2022/09/27 15:14:41;;;;;;;8.73;4.60;;;;;;;;;;4819196;29;20091;-65
2022/09/27 15:17:13;;;;;;;8.32;4.93;;;;;;;;;;4818833;29;20049;-66
2022/09/27 15:19:40;;;;;;;8.85;5.20;;;;;;;;;;4818757;29;20018;-65
2022/09/27 15:22:32;;;;;;;9.50;4.97;;;;;;;;;;4819081;29;20410;-66
2022/09/27 15:25:11;;;;;;;12.30;6.47;;;;;;;;;;4816744;29;20088;-65
2022/09/27 15:27:37;;;;;;;9.13;5.28;;;;;;;;;;4820681;29;20034;-64
2022/09/27 15:30:04;;;;;;;9.52;5.20;;;;;;;;;;4819661;29;20022;-64
2022/09/27 15:32:30;;;;;;;9.65;4.43;;;;;;;;;;4819494;29;20035;-65
2022/09/27 15:34:57;;;;;;;7.32;5.20;;;;;;;;;;4819642;29;20065;-65
2022/09/27 15:37:45;;;;;;;10.40;5.50;;;;;;;;;;4820287;29;20030;-64
2022/09/27 15:40:20;;;;;;;8.32;5.50;;;;;;;;;;4819024;29;20101;-66
2022/09/27 15:42:56;;;;;;;10.07;5.20;;;;;;;;;;4817126;29;20022;-65
2022/09/27 15:45:30;;;;;;;11.70;6.30;;;;;;;;;;4820717;29;20114;-64
2022/09/27 15:47:56;;;;;;;8.57;5.38;;;;;;;;;;4818902;29;20034;-64
2022/09/27 15:50:25;;;;;;;11.43;6.63;;;;;;;;;;4819398;29;20029;-66
2022/09/27 15:52:52;;;;;;;8.73;5.20;;;;;;;;;;4816598;29;20034;-66
2022/09/27 15:55:24;;;;;;;8.73;4.63;;;;;;;;;;4811572;29;20121;-64
2022/09/27 15:57:52;;;;;;;7.95;4.68;;;;;;;;;;4816537;29;20034;-66
2022/09/27 16:00:19;;;;;;;9.68;6.57;;;;;;;;;;4818939;29;20034;-67
2022/09/27 16:02:45;;;;;;;9.65;6.45;;;;;;;;;;4818146;29;20093;-67
2022/09/27 16:05:12;;;;;;;11.10;7.05;;;;;;;;;;4819049;29;20030;-65
2022/09/27 16:07:38;;;;;;;11.32;7.10;;;;;;;;;;4818985;29;20026;-65
2022/09/27 16:10:14;;;;;;;12.52;8.00;;;;;;;;;;4818935;29;20096;-65
2022/09/27 16:12:40;;;;;;;12.23;6.75;;;;;;;;;;4818752;29;20038;-64
2022/09/27 16:15:06;;;;;;;10.88;6.63;;;;;;;;;;4817894;29;20058;-67
2022/09/27 16:17:36;;;;;;;11.52;6.53;;;;;;;;;;4804860;29;20162;-65
2022/09/27 16:20:02;;;;;;;11.20;6.30;;;;;;;;;;4805373;29;20026;-65
2022/09/27 16:22:29;;;;;;;9.75;5.95;;;;;;;;;;4821669;29;20050;-65
2022/09/27 16:24:55;;;;;;;10.32;5.38;;;;;;;;;;4821908;29;20034;-65
2022/09/27 16:27:28;;;;;;;9.10;5.00;;;;;;;;;;4822052;29;20057;-64
2022/09/27 16:29:55;;;;;;;8.23;5.53;;;;;;;;;;4821823;29;20023;-65
2022/09/27 16:32:21;;;;;;;9.38;5.35;;;;;;;;;;4821717;29;20125;-64
2022/09/27 16:34:47;;;;;;;11.90;6.63;;;;;;;;;;4821586;29;20512;-64
2022/09/27 16:37:14;;;;;;;14.45;7.40;;;;;;;;;;4821694;29;20058;-65
2022/09/27 16:39:40;;;;;;;16.85;7.70;;;;;;;;;;4821685;29;20483;-65
2022/09/27 16:42:07;;;;;;;11.82;6.97;;;;;;;;;;4821641;29;20034;-65
2022/09/27 16:44:34;;;;;;;16.25;9.23;;;;;;;;;;4821855;29;20061;-64
2022/09/27 16:47:01;;;;;;;15.40;8.27;;;;;;;;;;4821794;29;20038;-65
2022/09/27 16:52:11;;;;;;;17.95;10.63;;;;;;;;;;4825216;29;20058;-64
2022/09/27 16:54:37;;;;;;;19.25;10.95;;;;;;;;;;4825173;29;20057;-64
2022/09/27 16:57:03;;;;;;;15.98;9.77;;;;;;;;;;4825292;29;20037;-64
2022/09/27 16:59:29;;;;;;;18.58;9.52;;;;;;;;;;4825214;29;20039;-65
2022/09/27 17:01:56;;;;;;;17.42;9.63;;;;;;;;;;4825180;29;20026;-64
2022/09/27 17:04:23;;;;;;;17.23;9.43;;;;;;;;;;4821376;29;20463;-66
2022/09/27 17:06:49;;;;;;;17.58;10.05;;;;;;;;;;4813077;29;20033;-66
2022/09/27 17:09:15;;;;;;;19.27;11.18;;;;;;;;;;4814955;29;20395;-64
2022/09/27 17:11:41;;;;;;;19.75;11.07;;;;;;;;;;4798303;29;20474;-64
2022/09/27 17:14:07;;;;;;;21.20;13.05;;;;;;;;;;4813453;29;20039;-68
2022/09/27 17:16:33;;;;;;;22.80;12.10;;;;;;;;;;4815177;29;20138;-66
2022/09/27 17:18:59;;;;;;;17.55;10.77;;;;;;;;;;4808246;29;20386;-64
2022/09/27 17:21:25;;;;;;;12.65;8.52;;;;;;;;;;4806297;29;20506;-64
2022/09/27 17:23:52;;;;;;;18.30;9.20;;;;;;;;;;4805901;29;20051;-64
2022/09/27 17:26:18;;;;;;;16.50;9.30;;;;;;;;;;4806230;29;20038;-64
2022/09/27 17:28:44;;;;;;;16.48;9.30;;;;;;;;;;4806459;29;20030;-64
2022/09/27 17:31:14;;;;;;;17.95;10.20;;;;;;;;;;4806083;29;20030;-64
2022/09/27 17:33:42;;;;;;;16.10;8.90;;;;;;;;;;4821552;29;20081;-64
2022/09/27 17:36:09;;;;;;;17.20;9.18;;;;;;;;;;4808884;29;20038;-63
2022/09/27 17:38:35;;;;;;;15.52;9.27;;;;;;;;;;4806523;29;20106;-64
2022/09/27 17:41:02;;;;;;;16.77;9.75;;;;;;;;;;4806298;29;20023;-64
2022/09/27 17:43:34;;;;;;;14.18;8.30;;;;;;;;;;4806497;29;20569;-67
2022/09/27 17:46:03;;;;;;;16.17;9.73;;;;;;;;;;4806259;29;20023;-64
2022/09/27 17:51:14;;;;;;;16.23;10.38;;;;;;;;;;4805814;29;20033;-64
2022/09/27 17:53:40;;;;;;;17.13;10.60;;;;;;;;;;4813273;29;20053;-64
2022/09/27 17:56:06;;;;;;;16.17;11.23;;;;;;;;;;4823987;29;20038;-64
2022/09/27 17:58:33;;;;;;;16.77;11.32;;;;;;;;;;4808902;29;20026;-63
2022/09/27 18:01:03;;;;;;;20.67;11.82;;;;;;;;;;4805249;29;20054;-64
2022/09/27 18:03:29;;;;;;;18.08;11.65;;;;;;;;;;4812527;29;20060;-67
2022/09/27 18:05:56;;;;;;;22.77;12.82;;;;;;;;;;4820963;29;20031;-63
2022/09/27 18:08:22;;;;;;;21.05;13.23;;;;;;;;;;4810615;29;20459;-66
2022/09/27 18:10:49;;;;;;;19.73;12.23;;;;;;;;;;4806386;29;20612;-64
2022/09/27 18:13:15;;;;;;;20.08;12.43;;;;;;;;;;4814710;29;20074;-62
2022/09/27 18:15:42;;;;;;;18.13;12.23;;;;;;;;;;4805777;29;20019;-64
2022/09/27 18:18:08;;;;;;;24.77;14.27;;;;;;;;;;4816780;29;20446;-65
2022/09/27 18:20:34;;;;;;;23.63;14.75;;;;;;;;;;4818794;29;20030;-64
2022/09/27 18:23:00;;;;;;;21.88;14.77;;;;;;;;;;4812179;29;20496;-63
2022/09/27 18:25:26;;;;;;;22.40;13.85;;;;;;;;;;4805246;29;20038;-63
2022/09/27 18:27:54;;;;;;;19.10;11.90;;;;;;;;;;4823574;29;20042;-64
2022/09/27 18:30:21;;;;;;;16.95;11.73;;;;;;;;;;4805700;29;20475;-63
2022/09/27 18:32:49;;;;;;;17.27;10.82;;;;;;;;;;4805613;29;20472;-63
2022/09/27 18:35:15;;;;;;;18.20;11.10;;;;;;;;;;4805219;29;20115;-64
2022/09/27 18:37:41;;;;;;;19.30;10.60;;;;;;;;;;4804300;29;20034;-63
2022/09/27 18:40:07;;;;;;;16.17;10.20;;;;;;;;;;4812530;29;20027;-63
2022/09/27 18:42:33;;;;;;;16.63;10.20;;;;;;;;;;4813850;29;20031;-67
2022/09/27 18:44:59;;;;;;;16.55;9.93;;;;;;;;;;4812719;29;20793;-63
2022/09/27 18:47:25;;;;;;;17.90;10.48;;;;;;;;;;4813655;29;20042;-64
2022/09/27 18:49:51;;;;;;;14.07;8.50;;;;;;;;;;4813963;29;20091;-64
2022/09/27 18:52:17;;;;;;;16.02;8.95;;;;;;;;;;4812000;29;20042;-63
2022/09/27 18:54:43;;;;;;;12.25;7.60;;;;;;;;;;4812815;29;20046;-63
2022/09/27 18:57:09;;;;;;;15.45;8.30;;;;;;;;;;4822283;29;20103;-64
2022/09/27 18:59:36;;;;;;;15.77;7.50;;;;;;;;;;4823152;29;20026;-64
2022/09/27 19:02:02;;;;;;;10.40;6.28;;;;;;;;;;4812374;29;20089;-64
2022/09/27 19:04:28;;;;;;;10.75;5.97;;;;;;;;;;4813315;29;20047;-63
2022/09/27 19:06:55;;;;;;;10.43;5.88;;;;;;;;;;4811647;29;20036;-65
2022/09/27 19:09:21;;;;;;;9.30;5.93;;;;;;;;;;4811248;29;20030;-66
2022/09/27 19:11:47;;;;;;;9.00;5.72;;;;;;;;;;4802844;29;20038;-65
2022/09/27 19:14:17;;;;;;;8.52;5.47;;;;;;;;;;4810815;29;20048;-63
2022/09/27 19:16:45;;;;;;;8.95;5.18;;;;;;;;;;4813649;29;20034;-64
2022/09/27 19:19:12;;;;;;;12.05;5.90;;;;;;;;;;4801902;29;20740;-64
2022/09/27 19:21:38;;;;;;;9.77;5.32;;;;;;;;;;4810684;29;20037;-63
2022/09/27 19:24:04;;;;;;;7.93;4.80;;;;;;;;;;4814121;29;20051;-63
2022/09/27 19:26:30;;;;;;;10.05;5.13;;;;;;;;;;4814017;29;20042;-62
2022/09/27 19:28:57;;;;;;;10.20;5.85;;;;;;;;;;4819677;29;20044;-63
2022/09/27 19:31:24;;;;;;;12.23;6.15;;;;;;;;;;4816359;29;20374;-63
2022/09/27 19:33:51;;;;;;;13.43;6.43;;;;;;;;;;4804090;29;20038;-63
2022/09/27 19:36:18;;;;;;;11.07;5.60;;;;;;;;;;4804483;29;20099;-63
2022/09/27 19:38:44;;;;;;;10.45;5.15;;;;;;;;;;4804302;29;20054;-63
2022/09/27 19:41:11;;;;;;;11.77;6.13;;;;;;;;;;4804117;29;20054;-63
2022/09/27 19:43:37;;;;;;;11.30;5.95;;;;;;;;;;4804044;29;20038;-63
2022/09/27 19:46:07;;;;;;;11.13;5.05;;;;;;;;;;4804047;29;20035;-63
2022/09/27 19:48:37;;;;;;;8.95;5.35;;;;;;;;;;4804277;29;20042;-63
2022/09/27 19:51:03;;;;;;;10.07;6.13;;;;;;;;;;4804103;29;20066;-64
2022/09/27 19:53:31;;;;;;;9.27;5.85;;;;;;;;;;4812981;29;20129;-63
2022/09/27 19:56:00;;;;;;;11.63;6.68;;;;;;;;;;4818527;29;20506;-63
2022/09/27 19:58:29;;;;;;;12.77;7.10;;;;;;;;;;4814265;29;20084;-64
2022/09/27 20:01:00;;;;;;;13.30;7.35;;;;;;;;;;4826715;29;20031;-63
2022/09/27 20:03:26;;;;;;;11.10;6.45;;;;;;;;;;4822339;29;20105;-64
2022/09/27 20:05:53;;;;;;;13.23;6.30;;;;;;;;;;4822406;29;20031;-64
2022/09/27 20:08:19;;;;;;;13.40;6.03;;;;;;;;;;4821922;29;20474;-62
2022/09/27 20:10:52;;;;;;;15.45;6.70;;;;;;;;;;4822246;29;20079;-67
2022/09/27 20:13:18;;;;;;;9.77;6.30;;;;;;;;;;4822058;29;20451;-63
2022/09/27 20:15:44;;;;;;;16.17;6.20;;;;;;;;;;4822186;29;20062;-63
2022/09/27 20:18:10;;;;;;;13.43;6.43;;;;;;;;;;4822053;29;20102;-64
2022/09/27 20:20:36;;;;;;;12.10;6.80;;;;;;;;;;4822142;29;20109;-66